Bei Facebook empfehlenBei Twitter postenGoogle plusPinterest

Das Wetter im Erzgebirge am 27.07.2015

Wetter und Klima am 27.07.2015 Holzhau im Erzgebirge (630m ü.NN)
Letzte gemessene Temperatur und Uhrzeit der Messung23:45:00 Uhr12.60 °C
Temperatur (Maximum / Höchstwert) und Uhrzeit der Messung14:15:00 Uhr21.00 °C
Temperatur (Minimum / Tiefstwert) und Uhrzeit der Messung00:00:009.80 °C
Errechneter Absolutwert der Temperaturschwankungen zwischen Tmin und Tmax des Tages11.20 K
Errechnete Tagesmitteltemperatur14.51146 °C
Gesamt - Niederschlag des Tages (in flüssiger Form)1.55 Liter / m²
Luftdruck (Maximum / Höchstwert) und Zeitpunkt der Messung00:30:00 Uhr1007.50 hPa
Luftdruck (Minimum / Tiefstwert) und Zeitpunkt der Messung14:15:00 Uhr1003.10 hPa
Errechneter Absolutwert der Luftdruckschwankungen des Tages4.40 hPa
Höchste gemessene Windgeschwindigkeit und Uhrzeit der Messung23:45:00 Uhr0.00 km/h
Errechnete Windhäufigkeit in Relation zu den Messwerten des Tages0.00000 %
Niedrigste Windkühle (Windchill) und Zeitpunkt der Messung00:00:00 Uhr9.80 °C
Taupunkt (Maximum / Höchstwert) und Uhrzeit der Messung14:00:00 Uhr14.70 °C
Taupunkt (Minimum / Tiefstwert) und Uhrzeit der Messung00:00:005.60 °C
Anzahl der automatisch eingelesenen Messwerte 96

Detaillierte Wetter- und Klima- Messwerte für den 27.07.2015 in Holzhau im Erzgebirge (630m ü.NN)
ZeitTemperaturLuftdruckRel. LuftfeuchteWindWindrichtungWindchillTaupunktNiederschlag l/m²
23:45:0012.60 °C1005.70 hPa84.00 %10.00 °C1.55
23:30:0012.60 °C1005.90 hPa83.00 %9.80 °C1.55
23:15:0012.50 °C1005.90 hPa83.00 %9.70 °C1.55
23:00:0012.50 °C1005.80 hPa83.00 %9.70 °C1.55
22:45:0012.50 °C1005.90 hPa82.00 %9.50 °C1.55
22:30:0012.80 °C1005.80 hPa81.00 %9.60 °C1.55
22:15:0013.20 °C1005.90 hPa81.00 %10.00 °C1.55
22:00:0013.40 °C1005.80 hPa82.00 %10.40 °C1.55
21:45:0013.20 °C1005.70 hPa82.00 %10.20 °C1.55
21:30:0013.30 °C1005.60 hPa80.00 %9.90 °C1.55
21:15:0013.70 °C1005.70 hPa80.00 %10.30 °C1.55
21:00:0014.10 °C1005.30 hPa79.00 %10.50 °C1.55
20:45:0014.50 °C1005.30 hPa79.00 %10.90 °C1.55
20:30:0014.70 °C1005.20 hPa77.00 %10.70 °C1.55
20:15:0015.20 °C1005.00 hPa75.00 %10.80 °C1.55
20:00:0015.90 °C1004.80 hPa75.00 %11.50 °C1.55
19:45:0016.40 °C1004.80 hPa74.00 %11.80 °C1.55
19:30:0016.50 °C1004.80 hPa75.00 %12.10 °C1.55
19:15:0016.50 °C1004.70 hPa75.00 %12.10 °C1.55
19:00:0016.80 °C1004.70 hPa74.00 %12.10 °C1.55
18:45:0017.40 °C1004.50 hPa75.00 %12.90 °C1.55
18:30:0017.10 °C1004.50 hPa74.00 %12.40 °C1.55
18:15:0017.60 °C1004.30 hPa74.00 %12.90 °C1.55
18:00:0017.50 °C1004.10 hPa75.00 %13.00 °C1.55
17:45:0017.20 °C1004.10 hPa76.00 %12.90 °C1.55
17:30:0017.30 °C1003.90 hPa77.00 %13.20 °C1.55
17:15:0016.90 °C1003.80 hPa79.00 %13.20 °C1.55
17:00:0016.20 °C1003.60 hPa86.00 %13.90 °C1.55
16:45:0014.60 °C1003.70 hPa84.00 %11.90 °C1.55
16:30:0014.50 °C1004.00 hPa82.00 %11.50 °C1.55
16:15:0015.20 °C1004.10 hPa80.00 %11.80 °C1.55
16:00:0016.40 °C1004.10 hPa78.00 %12.60 °C1.04
15:45:0017.20 °C1003.80 hPa76.00 %12.90 °C1.04
15:30:0018.20 °C1003.70 hPa75.00 %13.70 °C1.04
15:15:0018.20 °C1003.40 hPa79.00 %14.50 °C1.04
15:00:0016.40 °C1003.70 hPa77.00 %12.40 °C1.04
14:45:0016.30 °C1003.80 hPa70.00 %10.80 °C1.04
14:30:0020.40 °C1003.70 hPa61.00 %12.60 °C0.52
14:15:0021.00 °C1003.10 hPa63.00 %13.70 °C0.52
14:00:0020.80 °C1003.20 hPa68.00 %14.70 °C0.52
13:45:0019.20 °C1003.40 hPa71.00 %13.80 °C0.52
13:30:0018.80 °C1003.50 hPa74.00 %14.10 °C0.52
13:15:0018.30 °C1003.60 hPa78.00 %14.40 °C0.52
13:00:0017.50 °C1003.80 hPa77.00 %13.40 °C0.52
12:45:0017.00 °C1003.80 hPa74.00 %12.30 °C0.52
12:30:0018.90 °C1003.70 hPa71.00 %13.50 °C 
12:15:0018.40 °C1003.80 hPa77.00 %14.30 °C 
12:00:0016.60 °C1004.00 hPa76.00 %12.40 °C 
11:45:0017.30 °C1003.80 hPa70.00 %11.80 °C 
11:30:0018.80 °C1003.80 hPa68.00 %12.80 °C 
11:15:0017.90 °C1003.80 hPa71.00 %12.60 °C 
11:00:0016.80 °C1004.10 hPa74.00 %12.10 °C 
10:45:0016.10 °C1004.30 hPa73.00 %11.30 °C 
10:30:0016.20 °C1004.40 hPa71.00 %10.90 °C 
10:15:0016.80 °C1004.30 hPa68.00 %10.90 °C 
10:00:0017.20 °C1004.40 hPa68.00 %11.20 °C 
09:45:0017.50 °C1004.40 hPa68.00 %11.50 °C 
09:30:0016.70 °C1004.10 hPa69.00 %11.00 °C 
09:15:0016.00 °C1004.00 hPa69.00 %10.30 °C 
09:00:0016.20 °C1004.00 hPa69.00 %10.50 °C 
08:45:0015.90 °C1004.10 hPa70.00 %10.40 °C 
08:30:0015.50 °C1004.10 hPa73.00 %10.70 °C 
08:15:0014.80 °C1004.10 hPa73.00 %10.00 °C 
08:00:0014.30 °C1004.20 hPa74.00 %9.70 °C 
07:45:0014.30 °C1004.30 hPa76.00 %10.10 °C 
07:30:0013.30 °C1004.30 hPa78.00 %9.50 °C 
07:15:0012.60 °C1004.30 hPa79.00 %9.10 °C 
07:00:0012.10 °C1004.50 hPa79.00 %8.60 °C 
06:45:0011.60 °C1004.50 hPa78.00 %7.90 °C 
06:30:0011.40 °C1004.30 hPa78.00 %7.70 °C 
06:15:0011.30 °C1004.50 hPa78.00 %7.60 °C 
06:00:0011.20 °C1004.30 hPa77.00 %7.30 °C 
05:45:0011.40 °C1004.40 hPa77.00 %7.50 °C 
05:30:0011.30 °C1004.50 hPa77.00 %7.40 °C 
05:15:0010.90 °C1004.60 hPa80.00 %7.60 °C 
05:00:0010.80 °C1004.60 hPa80.00 %7.50 °C 
04:45:0010.70 °C1004.90 hPa81.00 %7.60 °C 
04:30:0010.60 °C1004.80 hPa81.00 %7.50 °C 
04:15:0010.50 °C1005.00 hPa82.00 %7.60 °C 
04:00:0010.30 °C1004.90 hPa82.00 %7.40 °C 
03:45:0010.10 °C1005.30 hPa82.00 %7.20 °C 
03:30:009.90 °C1005.40 hPa82.00 %7.00 °C 
03:15:009.90 °C1005.70 hPa82.00 %7.00 °C 
03:00:009.90 °C1006.10 hPa80.00 %6.60 °C 
02:45:0010.20 °C1006.70 hPa78.00 %6.50 °C 
02:30:0010.80 °C1006.60 hPa75.00 %6.60 °C 
02:15:0011.60 °C1006.70 hPa70.00 %6.30 °C 
02:00:0011.80 °C1006.90 hPa69.00 %6.30 °C 
01:45:0011.80 °C1006.90 hPa68.00 %6.10 °C 
01:30:0011.60 °C1006.90 hPa69.00 %6.10 °C 
01:15:0011.40 °C1007.10 hPa70.00 %6.10 °C 
01:00:0010.90 °C1007.30 hPa72.00 %6.10 °C 
00:45:0010.60 °C1007.40 hPa73.00 %6.00 °C 
00:30:0010.40 °C1007.50 hPa74.00 %6.00 °C 
00:15:0010.10 °C1007.50 hPa74.00 %5.70 °C 
00:00:009.80 °C1007.50 hPa75.00 %5.60 °C 

Permanenter Link zu dieser Seite: Wetter im Erzgebirge am 27.07.2015
Performance-Info: Die Erstellung der Seite / Statistik(en) / Tabelle(n) erforderte 5 Datenbankserver-Abfrage(n) und dauerte 103 Millisekunden. (Dieser Messwert ist von der Gesamt-Auslastung des Servers abhängig.)
Erzgebirge - Wetter | Erzgebirge - Wetter (Mobilgeräte) | Komplette Klimadatenbank